sensor_id;sensor_type;location;lat;lon;timestamp;P1;durP1;ratioP1;P2;durP2;ratioP2
46282;SDS011;32017;43.700;11.820;2023-08-08T00:00:53;0.93;;;0.93;;
46282;SDS011;32017;43.700;11.820;2023-08-08T00:03:13;1.00;;;1.00;;
46282;SDS011;32017;43.700;11.820;2023-08-08T00:05:33;1.75;;;1.00;;
46282;SDS011;32017;43.700;11.820;2023-08-08T00:07:53;2.25;;;1.20;;
46282;SDS011;32017;43.700;11.820;2023-08-08T00:10:13;1.25;;;1.15;;
46282;SDS011;32017;43.700;11.820;2023-08-08T00:12:33;3.88;;;1.05;;
46282;SDS011;32017;43.700;11.820;2023-08-08T00:14:53;1.20;;;1.20;;
46282;SDS011;32017;43.700;11.820;2023-08-08T00:17:13;1.27;;;1.27;;
46282;SDS011;32017;43.700;11.820;2023-08-08T00:19:33;1.10;;;1.10;;
46282;SDS011;32017;43.700;11.820;2023-08-08T00:21:54;1.10;;;1.10;;
46282;SDS011;32017;43.700;11.820;2023-08-08T00:24:13;1.60;;;1.10;;
46282;SDS011;32017;43.700;11.820;2023-08-08T00:26:33;1.05;;;1.05;;
46282;SDS011;32017;43.700;11.820;2023-08-08T00:28:53;1.00;;;1.00;;
46282;SDS011;32017;43.700;11.820;2023-08-08T00:31:13;1.10;;;1.10;;
46282;SDS011;32017;43.700;11.820;2023-08-08T00:33:36;1.20;;;1.20;;
46282;SDS011;32017;43.700;11.820;2023-08-08T00:35:56;1.20;;;1.20;;
46282;SDS011;32017;43.700;11.820;2023-08-08T00:38:16;1.30;;;1.30;;
46282;SDS011;32017;43.700;11.820;2023-08-08T00:40:37;1.20;;;1.20;;
46282;SDS011;32017;43.700;11.820;2023-08-08T00:42:57;1.42;;;1.42;;
46282;SDS011;32017;43.700;11.820;2023-08-08T00:45:16;1.10;;;1.10;;
46282;SDS011;32017;43.700;11.820;2023-08-08T00:47:36;1.10;;;1.10;;
46282;SDS011;32017;43.700;11.820;2023-08-08T00:49:56;1.40;;;1.30;;
46282;SDS011;32017;43.700;11.820;2023-08-08T00:52:16;1.40;;;1.40;;
46282;SDS011;32017;43.700;11.820;2023-08-08T00:54:36;1.60;;;1.50;;
46282;SDS011;32017;43.700;11.820;2023-08-08T00:56:55;1.42;;;1.42;;
46282;SDS011;32017;43.700;11.820;2023-08-08T00:59:16;1.33;;;1.33;;
46282;SDS011;32017;43.700;11.820;2023-08-08T01:03:59;1.33;;;1.33;;
46282;SDS011;32017;43.700;11.820;2023-08-08T01:06:23;1.10;;;1.10;;
46282;SDS011;32017;43.700;11.820;2023-08-08T01:09:00;1.30;;;1.30;;
46282;SDS011;32017;43.700;11.820;2023-08-08T01:11:29;1.33;;;1.33;;
46282;SDS011;32017;43.700;11.820;2023-08-08T01:13:52;3.15;;;1.63;;
46282;SDS011;32017;43.700;11.820;2023-08-08T01:16:14;1.60;;;1.38;;
46282;SDS011;32017;43.700;11.820;2023-08-08T01:18:35;2.63;;;2.35;;
46282;SDS011;32017;43.700;11.820;2023-08-08T01:20:56;1.85;;;1.85;;
46282;SDS011;32017;43.700;11.820;2023-08-08T01:26:02;1.45;;;1.40;;
46282;SDS011;32017;43.700;11.820;2023-08-08T01:28:22;1.33;;;1.30;;
46282;SDS011;32017;43.700;11.820;2023-08-08T01:30:43;1.55;;;1.42;;
46282;SDS011;32017;43.700;11.820;2023-08-08T01:33:05;1.20;;;1.20;;
46282;SDS011;32017;43.700;11.820;2023-08-08T01:35:26;1.25;;;1.25;;
46282;SDS011;32017;43.700;11.820;2023-08-08T01:37:52;1.42;;;1.20;;
46282;SDS011;32017;43.700;11.820;2023-08-08T01:40:18;1.25;;;1.25;;
46282;SDS011;32017;43.700;11.820;2023-08-08T01:42:39;1.50;;;1.50;;
46282;SDS011;32017;43.700;11.820;2023-08-08T01:45:00;5.85;;;1.60;;
46282;SDS011;32017;43.700;11.820;2023-08-08T01:47:22;1.75;;;1.73;;
46282;SDS011;32017;43.700;11.820;2023-08-08T01:49:42;1.17;;;1.17;;
46282;SDS011;32017;43.700;11.820;2023-08-08T01:52:02;1.20;;;1.20;;
46282;SDS011;32017;43.700;11.820;2023-08-08T01:54:22;1.27;;;1.27;;
46282;SDS011;32017;43.700;11.820;2023-08-08T01:56:42;1.40;;;1.40;;
46282;SDS011;32017;43.700;11.820;2023-08-08T01:59:02;1.42;;;1.35;;
46282;SDS011;32017;43.700;11.820;2023-08-08T02:01:22;1.38;;;1.38;;
46282;SDS011;32017;43.700;11.820;2023-08-08T02:03:42;1.30;;;1.30;;
46282;SDS011;32017;43.700;11.820;2023-08-08T02:06:02;1.45;;;1.45;;
46282;SDS011;32017;43.700;11.820;2023-08-08T02:08:22;1.70;;;1.70;;
46282;SDS011;32017;43.700;11.820;2023-08-08T02:10:42;1.42;;;1.42;;
46282;SDS011;32017;43.700;11.820;2023-08-08T02:13:02;1.90;;;1.90;;
46282;SDS011;32017;43.700;11.820;2023-08-08T02:15:22;1.67;;;1.55;;
46282;SDS011;32017;43.700;11.820;2023-08-08T02:17:42;1.75;;;1.65;;
46282;SDS011;32017;43.700;11.820;2023-08-08T02:20:02;1.55;;;1.45;;
46282;SDS011;32017;43.700;11.820;2023-08-08T02:22:23;1.65;;;1.65;;
46282;SDS011;32017;43.700;11.820;2023-08-08T02:24:43;1.42;;;1.42;;
46282;SDS011;32017;43.700;11.820;2023-08-08T02:27:04;1.50;;;1.50;;
46282;SDS011;32017;43.700;11.820;2023-08-08T02:29:24;2.03;;;1.90;;
46282;SDS011;32017;43.700;11.820;2023-08-08T02:31:43;2.00;;;2.00;;
46282;SDS011;32017;43.700;11.820;2023-08-08T02:34:03;1.92;;;1.92;;
46282;SDS011;32017;43.700;11.820;2023-08-08T02:36:23;1.83;;;1.83;;
46282;SDS011;32017;43.700;11.820;2023-08-08T02:38:44;1.90;;;1.90;;
46282;SDS011;32017;43.700;11.820;2023-08-08T02:41:04;3.25;;;1.83;;
46282;SDS011;32017;43.700;11.820;2023-08-08T02:43:24;2.40;;;1.83;;
46282;SDS011;32017;43.700;11.820;2023-08-08T02:45:43;2.05;;;1.65;;
46282;SDS011;32017;43.700;11.820;2023-08-08T02:48:04;2.92;;;2.85;;
46282;SDS011;32017;43.700;11.820;2023-08-08T02:50:24;3.28;;;3.28;;
46282;SDS011;32017;43.700;11.820;2023-08-08T02:52:44;4.97;;;4.97;;
46282;SDS011;32017;43.700;11.820;2023-08-08T02:55:04;3.47;;;3.47;;
46282;SDS011;32017;43.700;11.820;2023-08-08T02:57:24;2.65;;;2.65;;
46282;SDS011;32017;43.700;11.820;2023-08-08T02:59:44;2.92;;;2.92;;
46282;SDS011;32017;43.700;11.820;2023-08-08T03:02:04;3.08;;;3.08;;
46282;SDS011;32017;43.700;11.820;2023-08-08T03:04:25;4.85;;;4.65;;
46282;SDS011;32017;43.700;11.820;2023-08-08T03:06:45;6.10;;;6.00;;
46282;SDS011;32017;43.700;11.820;2023-08-08T03:09:05;5.70;;;5.60;;
46282;SDS011;32017;43.700;11.820;2023-08-08T03:11:25;2.60;;;2.50;;
46282;SDS011;32017;43.700;11.820;2023-08-08T03:13:45;3.95;;;3.95;;
46282;SDS011;32017;43.700;11.820;2023-08-08T03:16:04;3.78;;;3.60;;
46282;SDS011;32017;43.700;11.820;2023-08-08T03:18:24;2.75;;;2.75;;
46282;SDS011;32017;43.700;11.820;2023-08-08T03:20:45;2.47;;;2.47;;
46282;SDS011;32017;43.700;11.820;2023-08-08T03:23:04;1.88;;;1.88;;
46282;SDS011;32017;43.700;11.820;2023-08-08T03:25:24;2.38;;;2.38;;
46282;SDS011;32017;43.700;11.820;2023-08-08T03:27:44;2.03;;;2.03;;
46282;SDS011;32017;43.700;11.820;2023-08-08T03:30:04;3.20;;;2.03;;
46282;SDS011;32017;43.700;11.820;2023-08-08T03:32:25;1.77;;;1.77;;
46282;SDS011;32017;43.700;11.820;2023-08-08T03:34:45;2.22;;;2.15;;
46282;SDS011;32017;43.700;11.820;2023-08-08T03:37:05;3.60;;;3.47;;
46282;SDS011;32017;43.700;11.820;2023-08-08T03:39:25;6.13;;;6.03;;
46282;SDS011;32017;43.700;11.820;2023-08-08T03:41:46;5.88;;;5.78;;
46282;SDS011;32017;43.700;11.820;2023-08-08T03:44:06;4.63;;;4.63;;
46282;SDS011;32017;43.700;11.820;2023-08-08T03:46:26;5.78;;;5.78;;
46282;SDS011;32017;43.700;11.820;2023-08-08T03:48:46;7.30;;;7.20;;
46282;SDS011;32017;43.700;11.820;2023-08-08T03:51:06;5.38;;;5.38;;
46282;SDS011;32017;43.700;11.820;2023-08-08T03:53:26;4.20;;;4.20;;
46282;SDS011;32017;43.700;11.820;2023-08-08T03:55:46;6.63;;;6.43;;
46282;SDS011;32017;43.700;11.820;2023-08-08T03:58:06;6.03;;;6.03;;
46282;SDS011;32017;43.700;11.820;2023-08-08T04:00:26;5.70;;;5.60;;
46282;SDS011;32017;43.700;11.820;2023-08-08T04:02:46;6.72;;;6.72;;
46282;SDS011;32017;43.700;11.820;2023-08-08T04:05:06;6.85;;;6.57;;
46282;SDS011;32017;43.700;11.820;2023-08-08T04:07:26;7.20;;;7.10;;
46282;SDS011;32017;43.700;11.820;2023-08-08T04:09:46;6.90;;;6.90;;
46282;SDS011;32017;43.700;11.820;2023-08-08T04:12:06;7.22;;;7.13;;
46282;SDS011;32017;43.700;11.820;2023-08-08T04:14:26;8.50;;;8.40;;
46282;SDS011;32017;43.700;11.820;2023-08-08T04:16:45;6.68;;;6.57;;
46282;SDS011;32017;43.700;11.820;2023-08-08T04:19:05;5.93;;;5.82;;
46282;SDS011;32017;43.700;11.820;2023-08-08T04:21:25;7.07;;;6.88;;
46282;SDS011;32017;43.700;11.820;2023-08-08T04:23:48;6.43;;;6.23;;
46282;SDS011;32017;43.700;11.820;2023-08-08T04:26:07;6.57;;;6.47;;
46282;SDS011;32017;43.700;11.820;2023-08-08T04:28:27;7.07;;;6.72;;
46282;SDS011;32017;43.700;11.820;2023-08-08T04:30:46;5.50;;;5.40;;
46282;SDS011;32017;43.700;11.820;2023-08-08T04:33:06;4.65;;;4.65;;
46282;SDS011;32017;43.700;11.820;2023-08-08T04:35:27;6.03;;;6.00;;
46282;SDS011;32017;43.700;11.820;2023-08-08T04:37:46;3.38;;;3.38;;
46282;SDS011;32017;43.700;11.820;2023-08-08T04:40:06;5.07;;;4.82;;
46282;SDS011;32017;43.700;11.820;2023-08-08T04:42:27;3.58;;;3.50;;
46282;SDS011;32017;43.700;11.820;2023-08-08T04:44:47;4.95;;;4.95;;
46282;SDS011;32017;43.700;11.820;2023-08-08T04:47:07;5.55;;;5.55;;
46282;SDS011;32017;43.700;11.820;2023-08-08T04:49:27;6.28;;;6.18;;
46282;SDS011;32017;43.700;11.820;2023-08-08T04:51:48;7.85;;;7.75;;
46282;SDS011;32017;43.700;11.820;2023-08-08T04:54:08;6.30;;;6.05;;
46282;SDS011;32017;43.700;11.820;2023-08-08T04:56:27;7.13;;;6.93;;
46282;SDS011;32017;43.700;11.820;2023-08-08T04:58:49;7.55;;;7.35;;
46282;SDS011;32017;43.700;11.820;2023-08-08T05:01:08;7.00;;;6.90;;
46282;SDS011;32017;43.700;11.820;2023-08-08T05:03:33;7.45;;;7.35;;
46282;SDS011;32017;43.700;11.820;2023-08-08T05:05:53;7.63;;;7.53;;
46282;SDS011;32017;43.700;11.820;2023-08-08T05:08:13;5.93;;;5.78;;
46282;SDS011;32017;43.700;11.820;2023-08-08T05:10:33;7.15;;;6.80;;
46282;SDS011;32017;43.700;11.820;2023-08-08T05:12:54;5.38;;;5.28;;
46282;SDS011;32017;43.700;11.820;2023-08-08T05:15:13;4.93;;;4.82;;
46282;SDS011;32017;43.700;11.820;2023-08-08T05:17:34;6.72;;;6.53;;
46282;SDS011;32017;43.700;11.820;2023-08-08T05:19:54;8.98;;;8.50;;
46282;SDS011;32017;43.700;11.820;2023-08-08T05:22:14;8.55;;;8.35;;
46282;SDS011;32017;43.700;11.820;2023-08-08T05:24:34;9.45;;;9.35;;
46282;SDS011;32017;43.700;11.820;2023-08-08T05:26:55;9.75;;;9.65;;
46282;SDS011;32017;43.700;11.820;2023-08-08T05:29:15;8.77;;;8.43;;
46282;SDS011;32017;43.700;11.820;2023-08-08T05:31:36;7.80;;;7.50;;
46282;SDS011;32017;43.700;11.820;2023-08-08T05:33:55;7.78;;;7.63;;
46282;SDS011;32017;43.700;11.820;2023-08-08T05:36:15;8.00;;;7.63;;
46282;SDS011;32017;43.700;11.820;2023-08-08T05:38:34;8.32;;;5.10;;
46282;SDS011;32017;43.700;11.820;2023-08-08T05:40:55;4.03;;;4.00;;
46282;SDS011;32017;43.700;11.820;2023-08-08T05:43:15;2.67;;;2.67;;
46282;SDS011;32017;43.700;11.820;2023-08-08T05:45:37;3.08;;;3.03;;
46282;SDS011;32017;43.700;11.820;2023-08-08T05:47:57;2.35;;;2.30;;
46282;SDS011;32017;43.700;11.820;2023-08-08T05:50:19;1.75;;;1.75;;
46282;SDS011;32017;43.700;11.820;2023-08-08T05:52:39;1.23;;;1.23;;
46282;SDS011;32017;43.700;11.820;2023-08-08T05:54:59;6.63;;;1.50;;
46282;SDS011;32017;43.700;11.820;2023-08-08T05:57:20;1.05;;;1.05;;
46282;SDS011;32017;43.700;11.820;2023-08-08T05:59:40;1.30;;;1.30;;
46282;SDS011;32017;43.700;11.820;2023-08-08T06:02:00;1.27;;;1.27;;
46282;SDS011;32017;43.700;11.820;2023-08-08T06:04:20;1.27;;;1.27;;
46282;SDS011;32017;43.700;11.820;2023-08-08T06:06:40;1.33;;;1.33;;
46282;SDS011;32017;43.700;11.820;2023-08-08T06:09:00;1.00;;;1.00;;
46282;SDS011;32017;43.700;11.820;2023-08-08T06:11:20;1.15;;;1.15;;
46282;SDS011;32017;43.700;11.820;2023-08-08T06:13:40;1.50;;;1.50;;
46282;SDS011;32017;43.700;11.820;2023-08-08T06:16:01;1.20;;;1.20;;
46282;SDS011;32017;43.700;11.820;2023-08-08T06:18:26;1.38;;;1.27;;
46282;SDS011;32017;43.700;11.820;2023-08-08T06:20:46;1.20;;;1.20;;
46282;SDS011;32017;43.700;11.820;2023-08-08T06:23:06;1.80;;;1.00;;
46282;SDS011;32017;43.700;11.820;2023-08-08T06:25:26;1.20;;;1.20;;
46282;SDS011;32017;43.700;11.820;2023-08-08T06:27:47;2.17;;;1.65;;
46282;SDS011;32017;43.700;11.820;2023-08-08T06:30:09;1.08;;;1.08;;
46282;SDS011;32017;43.700;11.820;2023-08-08T06:32:29;3.90;;;1.20;;
46282;SDS011;32017;43.700;11.820;2023-08-08T06:34:49;1.92;;;1.20;;
46282;SDS011;32017;43.700;11.820;2023-08-08T06:37:09;1.27;;;1.27;;
46282;SDS011;32017;43.700;11.820;2023-08-08T06:39:29;1.25;;;1.00;;
46282;SDS011;32017;43.700;11.820;2023-08-08T06:41:49;1.00;;;1.00;;
46282;SDS011;32017;43.700;11.820;2023-08-08T06:44:09;2.15;;;1.10;;
46282;SDS011;32017;43.700;11.820;2023-08-08T06:46:29;5.05;;;1.25;;
46282;SDS011;32017;43.700;11.820;2023-08-08T06:48:49;2.20;;;1.30;;
46282;SDS011;32017;43.700;11.820;2023-08-08T06:51:12;1.58;;;1.00;;
46282;SDS011;32017;43.700;11.820;2023-08-08T06:53:32;1.00;;;1.00;;
46282;SDS011;32017;43.700;11.820;2023-08-08T06:55:52;1.30;;;1.30;;
46282;SDS011;32017;43.700;11.820;2023-08-08T06:58:11;1.10;;;1.10;;
46282;SDS011;32017;43.700;11.820;2023-08-08T07:00:31;2.30;;;1.30;;
46282;SDS011;32017;43.700;11.820;2023-08-08T07:02:51;1.13;;;1.13;;
46282;SDS011;32017;43.700;11.820;2023-08-08T07:05:11;1.05;;;1.00;;
46282;SDS011;32017;43.700;11.820;2023-08-08T07:07:31;0.93;;;0.93;;
46282;SDS011;32017;43.700;11.820;2023-08-08T07:09:52;1.05;;;1.00;;
46282;SDS011;32017;43.700;11.820;2023-08-08T07:12:12;0.90;;;0.90;;
46282;SDS011;32017;43.700;11.820;2023-08-08T07:14:32;0.80;;;0.80;;
46282;SDS011;32017;43.700;11.820;2023-08-08T07:16:52;2.35;;;0.85;;
46282;SDS011;32017;43.700;11.820;2023-08-08T07:19:12;1.00;;;1.00;;
46282;SDS011;32017;43.700;11.820;2023-08-08T07:21:32;3.70;;;1.00;;
46282;SDS011;32017;43.700;11.820;2023-08-08T07:23:52;0.80;;;0.80;;
46282;SDS011;32017;43.700;11.820;2023-08-08T07:26:11;1.45;;;0.80;;
46282;SDS011;32017;43.700;11.820;2023-08-08T07:28:31;0.90;;;0.90;;
46282;SDS011;32017;43.700;11.820;2023-08-08T07:30:52;2.28;;;0.90;;
46282;SDS011;32017;43.700;11.820;2023-08-08T07:33:12;1.60;;;1.10;;
46282;SDS011;32017;43.700;11.820;2023-08-08T07:35:32;7.68;;;0.90;;
46282;SDS011;32017;43.700;11.820;2023-08-08T07:37:53;1.30;;;0.80;;
46282;SDS011;32017;43.700;11.820;2023-08-08T07:40:16;0.85;;;0.80;;
46282;SDS011;32017;43.700;11.820;2023-08-08T07:42:37;0.80;;;0.80;;
46282;SDS011;32017;43.700;11.820;2023-08-08T07:44:56;1.50;;;0.80;;
46282;SDS011;32017;43.700;11.820;2023-08-08T07:47:16;0.70;;;0.70;;
46282;SDS011;32017;43.700;11.820;2023-08-08T07:49:36;0.95;;;0.80;;
46282;SDS011;32017;43.700;11.820;2023-08-08T07:51:56;0.95;;;0.80;;
46282;SDS011;32017;43.700;11.820;2023-08-08T07:54:16;1.63;;;0.70;;
46282;SDS011;32017;43.700;11.820;2023-08-08T07:56:36;0.90;;;0.90;;
46282;SDS011;32017;43.700;11.820;2023-08-08T07:58:56;0.80;;;0.80;;
46282;SDS011;32017;43.700;11.820;2023-08-08T08:01:17;1.65;;;0.90;;
46282;SDS011;32017;43.700;11.820;2023-08-08T08:03:37;0.85;;;0.70;;
46282;SDS011;32017;43.700;11.820;2023-08-08T08:05:58;0.70;;;0.70;;
46282;SDS011;32017;43.700;11.820;2023-08-08T08:08:17;0.70;;;0.70;;
46282;SDS011;32017;43.700;11.820;2023-08-08T08:10:37;1.65;;;0.70;;
46282;SDS011;32017;43.700;11.820;2023-08-08T08:12:57;0.70;;;0.70;;
46282;SDS011;32017;43.700;11.820;2023-08-08T08:15:17;1.20;;;0.60;;
46282;SDS011;32017;43.700;11.820;2023-08-08T08:17:37;0.70;;;0.70;;
46282;SDS011;32017;43.700;11.820;2023-08-08T08:19:57;0.70;;;0.70;;
46282;SDS011;32017;43.700;11.820;2023-08-08T08:22:17;0.70;;;0.70;;
46282;SDS011;32017;43.700;11.820;2023-08-08T08:24:37;0.70;;;0.70;;
46282;SDS011;32017;43.700;11.820;2023-08-08T08:26:57;0.88;;;0.75;;
46282;SDS011;32017;43.700;11.820;2023-08-08T08:29:17;0.60;;;0.60;;
46282;SDS011;32017;43.700;11.820;2023-08-08T08:31:36;0.60;;;0.60;;
46282;SDS011;32017;43.700;11.820;2023-08-08T08:33:57;0.68;;;0.63;;
46282;SDS011;32017;43.700;11.820;2023-08-08T08:36:17;1.65;;;0.90;;
46282;SDS011;32017;43.700;11.820;2023-08-08T08:38:37;0.82;;;0.60;;
46282;SDS011;32017;43.700;11.820;2023-08-08T08:40:57;0.63;;;0.63;;
46282;SDS011;32017;43.700;11.820;2023-08-08T08:43:17;0.60;;;0.60;;
46282;SDS011;32017;43.700;11.820;2023-08-08T08:45:38;1.17;;;0.63;;
46282;SDS011;32017;43.700;11.820;2023-08-08T08:47:59;0.60;;;0.60;;
46282;SDS011;32017;43.700;11.820;2023-08-08T08:50:20;0.55;;;0.55;;
46282;SDS011;32017;43.700;11.820;2023-08-08T08:52:42;0.60;;;0.60;;
46282;SDS011;32017;43.700;11.820;2023-08-08T08:55:02;1.27;;;0.60;;
46282;SDS011;32017;43.700;11.820;2023-08-08T08:57:23;0.60;;;0.60;;
46282;SDS011;32017;43.700;11.820;2023-08-08T08:59:43;2.20;;;0.60;;
46282;SDS011;32017;43.700;11.820;2023-08-08T09:02:03;0.95;;;0.60;;
46282;SDS011;32017;43.700;11.820;2023-08-08T09:04:23;0.73;;;0.60;;
46282;SDS011;32017;43.700;11.820;2023-08-08T09:06:43;0.50;;;0.50;;
46282;SDS011;32017;43.700;11.820;2023-08-08T09:09:04;0.57;;;0.57;;
46282;SDS011;32017;43.700;11.820;2023-08-08T09:11:35;0.50;;;0.50;;
46282;SDS011;32017;43.700;11.820;2023-08-08T09:13:55;0.52;;;0.52;;
46282;SDS011;32017;43.700;11.820;2023-08-08T09:16:15;0.50;;;0.50;;
46282;SDS011;32017;43.700;11.820;2023-08-08T09:18:35;1.13;;;0.40;;
46282;SDS011;32017;43.700;11.820;2023-08-08T09:20:58;0.50;;;0.50;;
46282;SDS011;32017;43.700;11.820;2023-08-08T09:23:19;0.52;;;0.50;;
46282;SDS011;32017;43.700;11.820;2023-08-08T09:25:40;0.50;;;0.50;;
46282;SDS011;32017;43.700;11.820;2023-08-08T09:28:00;0.50;;;0.50;;
46282;SDS011;32017;43.700;11.820;2023-08-08T09:30:20;0.47;;;0.47;;
46282;SDS011;32017;43.700;11.820;2023-08-08T09:32:42;0.50;;;0.50;;
46282;SDS011;32017;43.700;11.820;2023-08-08T09:35:03;0.50;;;0.50;;
46282;SDS011;32017;43.700;11.820;2023-08-08T09:37:28;0.50;;;0.50;;
46282;SDS011;32017;43.700;11.820;2023-08-08T09:39:55;0.50;;;0.50;;
46282;SDS011;32017;43.700;11.820;2023-08-08T09:42:19;4.63;;;0.70;;
46282;SDS011;32017;43.700;11.820;2023-08-08T09:44:39;1.75;;;0.90;;
46282;SDS011;32017;43.700;11.820;2023-08-08T09:47:02;0.50;;;0.50;;
46282;SDS011;32017;43.700;11.820;2023-08-08T09:49:22;0.40;;;0.40;;
46282;SDS011;32017;43.700;11.820;2023-08-08T09:51:42;0.45;;;0.45;;
46282;SDS011;32017;43.700;11.820;2023-08-08T09:54:02;0.40;;;0.40;;
46282;SDS011;32017;43.700;11.820;2023-08-08T09:56:25;0.40;;;0.40;;
46282;SDS011;32017;43.700;11.820;2023-08-08T09:58:46;0.40;;;0.40;;
46282;SDS011;32017;43.700;11.820;2023-08-08T10:01:06;0.40;;;0.40;;
46282;SDS011;32017;43.700;11.820;2023-08-08T10:03:27;0.40;;;0.40;;
46282;SDS011;32017;43.700;11.820;2023-08-08T10:05:48;0.40;;;0.40;;
46282;SDS011;32017;43.700;11.820;2023-08-08T10:08:08;0.40;;;0.40;;
46282;SDS011;32017;43.700;11.820;2023-08-08T10:10:28;0.40;;;0.40;;
46282;SDS011;32017;43.700;11.820;2023-08-08T10:12:50;0.40;;;0.40;;
46282;SDS011;32017;43.700;11.820;2023-08-08T10:15:10;0.40;;;0.40;;
46282;SDS011;32017;43.700;11.820;2023-08-08T10:17:34;0.40;;;0.40;;
46282;SDS011;32017;43.700;11.820;2023-08-08T10:19:57;0.40;;;0.40;;
46282;SDS011;32017;43.700;11.820;2023-08-08T10:22:21;0.40;;;0.40;;
46282;SDS011;32017;43.700;11.820;2023-08-08T10:24:43;0.40;;;0.40;;
46282;SDS011;32017;43.700;11.820;2023-08-08T10:27:07;0.40;;;0.40;;
46282;SDS011;32017;43.700;11.820;2023-08-08T10:29:28;0.40;;;0.40;;
46282;SDS011;32017;43.700;11.820;2023-08-08T10:32:05;0.43;;;0.43;;
46282;SDS011;32017;43.700;11.820;2023-08-08T10:34:27;0.40;;;0.40;;
46282;SDS011;32017;43.700;11.820;2023-08-08T10:36:58;0.40;;;0.40;;
46282;SDS011;32017;43.700;11.820;2023-08-08T10:39:18;0.30;;;0.30;;
46282;SDS011;32017;43.700;11.820;2023-08-08T10:41:44;0.40;;;0.40;;
46282;SDS011;32017;43.700;11.820;2023-08-08T10:44:08;0.43;;;0.30;;
46282;SDS011;32017;43.700;11.820;2023-08-08T10:46:29;0.40;;;0.40;;
46282;SDS011;32017;43.700;11.820;2023-08-08T10:48:50;0.40;;;0.40;;
46282;SDS011;32017;43.700;11.820;2023-08-08T10:51:13;0.40;;;0.40;;
46282;SDS011;32017;43.700;11.820;2023-08-08T10:53:33;0.40;;;0.40;;
46282;SDS011;32017;43.700;11.820;2023-08-08T10:55:57;0.32;;;0.32;;
46282;SDS011;32017;43.700;11.820;2023-08-08T10:58:21;0.40;;;0.40;;
46282;SDS011;32017;43.700;11.820;2023-08-08T11:00:40;0.40;;;0.40;;
46282;SDS011;32017;43.700;11.820;2023-08-08T11:03:01;0.40;;;0.40;;
46282;SDS011;32017;43.700;11.820;2023-08-08T11:05:24;0.40;;;0.40;;
46282;SDS011;32017;43.700;11.820;2023-08-08T11:10:07;0.40;;;0.40;;
46282;SDS011;32017;43.700;11.820;2023-08-08T11:12:27;0.30;;;0.30;;
46282;SDS011;32017;43.700;11.820;2023-08-08T11:14:47;0.40;;;0.40;;
46282;SDS011;32017;43.700;11.820;2023-08-08T11:17:06;0.40;;;0.40;;
46282;SDS011;32017;43.700;11.820;2023-08-08T11:19:28;0.40;;;0.40;;
46282;SDS011;32017;43.700;11.820;2023-08-08T11:21:49;0.30;;;0.30;;
46282;SDS011;32017;43.700;11.820;2023-08-08T11:24:10;0.40;;;0.40;;
46282;SDS011;32017;43.700;11.820;2023-08-08T11:26:31;0.40;;;0.40;;
46282;SDS011;32017;43.700;11.820;2023-08-08T11:28:52;0.40;;;0.40;;
46282;SDS011;32017;43.700;11.820;2023-08-08T11:31:12;0.40;;;0.40;;
46282;SDS011;32017;43.700;11.820;2023-08-08T11:33:32;0.40;;;0.40;;
46282;SDS011;32017;43.700;11.820;2023-08-08T11:35:52;0.30;;;0.30;;
46282;SDS011;32017;43.700;11.820;2023-08-08T11:38:13;0.40;;;0.40;;
46282;SDS011;32017;43.700;11.820;2023-08-08T11:40:34;0.40;;;0.40;;
46282;SDS011;32017;43.700;11.820;2023-08-08T11:42:55;0.40;;;0.40;;
46282;SDS011;32017;43.700;11.820;2023-08-08T11:45:18;0.40;;;0.40;;
46282;SDS011;32017;43.700;11.820;2023-08-08T11:47:39;0.30;;;0.30;;
46282;SDS011;32017;43.700;11.820;2023-08-08T11:49:59;0.38;;;0.38;;
46282;SDS011;32017;43.700;11.820;2023-08-08T11:52:20;0.68;;;0.40;;
46282;SDS011;32017;43.700;11.820;2023-08-08T11:54:39;0.35;;;0.35;;
46282;SDS011;32017;43.700;11.820;2023-08-08T11:57:01;0.32;;;0.32;;
46282;SDS011;32017;43.700;11.820;2023-08-08T11:59:21;0.30;;;0.30;;
46282;SDS011;32017;43.700;11.820;2023-08-08T12:01:41;0.40;;;0.40;;
46282;SDS011;32017;43.700;11.820;2023-08-08T12:04:07;0.30;;;0.30;;
46282;SDS011;32017;43.700;11.820;2023-08-08T12:06:28;0.40;;;0.40;;
46282;SDS011;32017;43.700;11.820;2023-08-08T12:08:48;0.35;;;0.35;;
46282;SDS011;32017;43.700;11.820;2023-08-08T12:11:09;0.40;;;0.40;;
46282;SDS011;32017;43.700;11.820;2023-08-08T12:13:31;1.08;;;0.30;;
46282;SDS011;32017;43.700;11.820;2023-08-08T12:15:52;0.30;;;0.30;;
46282;SDS011;32017;43.700;11.820;2023-08-08T12:18:16;0.30;;;0.30;;
46282;SDS011;32017;43.700;11.820;2023-08-08T12:22:58;0.40;;;0.40;;
46282;SDS011;32017;43.700;11.820;2023-08-08T12:25:18;0.40;;;0.40;;
46282;SDS011;32017;43.700;11.820;2023-08-08T12:27:38;1.58;;;0.35;;
46282;SDS011;32017;43.700;11.820;2023-08-08T12:29:58;0.40;;;0.40;;
46282;SDS011;32017;43.700;11.820;2023-08-08T12:32:19;0.40;;;0.40;;
46282;SDS011;32017;43.700;11.820;2023-08-08T12:34:42;0.40;;;0.40;;
46282;SDS011;32017;43.700;11.820;2023-08-08T12:37:02;0.40;;;0.40;;
46282;SDS011;32017;43.700;11.820;2023-08-08T12:39:22;0.30;;;0.30;;
46282;SDS011;32017;43.700;11.820;2023-08-08T12:41:42;0.40;;;0.40;;
46282;SDS011;32017;43.700;11.820;2023-08-08T12:44:02;0.30;;;0.30;;
46282;SDS011;32017;43.700;11.820;2023-08-08T12:46:22;0.30;;;0.30;;
46282;SDS011;32017;43.700;11.820;2023-08-08T12:48:42;0.50;;;0.30;;
46282;SDS011;32017;43.700;11.820;2023-08-08T12:51:05;0.30;;;0.30;;
46282;SDS011;32017;43.700;11.820;2023-08-08T12:53:26;0.35;;;0.35;;
46282;SDS011;32017;43.700;11.820;2023-08-08T12:55:46;0.85;;;0.40;;
46282;SDS011;32017;43.700;11.820;2023-08-08T12:58:06;0.30;;;0.30;;
46282;SDS011;32017;43.700;11.820;2023-08-08T13:00:26;0.38;;;0.38;;
46282;SDS011;32017;43.700;11.820;2023-08-08T13:02:47;0.30;;;0.30;;
46282;SDS011;32017;43.700;11.820;2023-08-08T13:05:07;0.40;;;0.40;;
46282;SDS011;32017;43.700;11.820;2023-08-08T13:07:27;0.40;;;0.40;;
46282;SDS011;32017;43.700;11.820;2023-08-08T13:09:47;0.30;;;0.30;;
46282;SDS011;32017;43.700;11.820;2023-08-08T13:12:07;0.38;;;0.38;;
46282;SDS011;32017;43.700;11.820;2023-08-08T13:14:26;0.40;;;0.40;;
46282;SDS011;32017;43.700;11.820;2023-08-08T13:16:47;0.40;;;0.40;;
46282;SDS011;32017;43.700;11.820;2023-08-08T13:19:07;0.40;;;0.40;;
46282;SDS011;32017;43.700;11.820;2023-08-08T13:21:27;0.30;;;0.30;;
46282;SDS011;32017;43.700;11.820;2023-08-08T13:23:47;0.50;;;0.30;;
46282;SDS011;32017;43.700;11.820;2023-08-08T13:26:06;0.45;;;0.40;;
46282;SDS011;32017;43.700;11.820;2023-08-08T13:28:26;0.40;;;0.40;;
46282;SDS011;32017;43.700;11.820;2023-08-08T13:30:46;0.30;;;0.30;;
46282;SDS011;32017;43.700;11.820;2023-08-08T13:33:06;0.35;;;0.35;;
46282;SDS011;32017;43.700;11.820;2023-08-08T13:35:26;0.30;;;0.30;;
46282;SDS011;32017;43.700;11.820;2023-08-08T13:37:46;0.40;;;0.35;;
46282;SDS011;32017;43.700;11.820;2023-08-08T13:40:11;0.30;;;0.30;;
46282;SDS011;32017;43.700;11.820;2023-08-08T13:42:32;1.20;;;0.38;;
46282;SDS011;32017;43.700;11.820;2023-08-08T13:44:52;0.30;;;0.30;;
46282;SDS011;32017;43.700;11.820;2023-08-08T13:47:14;0.30;;;0.30;;
46282;SDS011;32017;43.700;11.820;2023-08-08T13:49:33;0.30;;;0.30;;
46282;SDS011;32017;43.700;11.820;2023-08-08T13:51:55;1.67;;;0.30;;
46282;SDS011;32017;43.700;11.820;2023-08-08T13:54:15;0.30;;;0.30;;
46282;SDS011;32017;43.700;11.820;2023-08-08T13:56:34;0.30;;;0.30;;
46282;SDS011;32017;43.700;11.820;2023-08-08T13:58:54;3.63;;;0.40;;
46282;SDS011;32017;43.700;11.820;2023-08-08T14:01:14;0.73;;;0.30;;
46282;SDS011;32017;43.700;11.820;2023-08-08T14:03:34;0.40;;;0.40;;